Time;durP1;ratioP1;P1;durP2;ratioP2;P2;SDS_P1;SDS_P2;PMS_P1;PMS_P2;Temp;Humidity;BMP_temperature;BMP_pressure;BME280_temperature;BME280_humidity;BME280_pressure;Samples;Min_cycle;Max_cycle;Signal;HPM_P1;HPM_P2
2021/04/29 00:00:16;;;;;;;13.60;9.63;;;;;;;;;;5049855;28;20625;-77
2021/04/29 00:03:00;;;;;;;10.70;9.27;;;;;;;;;;5050258;28;20202;-77
2021/04/29 00:05:45;;;;;;;13.52;9.93;;;;;;;;;;5050284;28;20420;-76
2021/04/29 00:08:30;;;;;;;13.90;9.67;;;;;;;;;;5053167;28;20221;-77
2021/04/29 00:11:15;;;;;;;10.23;9.17;;;;;;;;;;5053570;28;20201;-76
2021/04/29 00:13:59;;;;;;;10.53;9.07;;;;;;;;;;5054708;28;20201;-76
2021/04/29 00:16:44;;;;;;;11.17;9.37;;;;;;;;;;5054520;28;20209;-77
2021/04/29 00:19:29;;;;;;;11.90;9.83;;;;;;;;;;5053847;28;20616;-76
2021/04/29 00:22:13;;;;;;;12.13;10.90;;;;;;;;;;5033138;28;20411;-77
2021/04/29 00:24:59;;;;;;;11.27;10.17;;;;;;;;;;5041735;28;20281;-77
2021/04/29 00:27:43;;;;;;;11.90;10.23;;;;;;;;;;5034613;28;20585;-77
2021/04/29 00:30:28;;;;;;;12.83;10.67;;;;;;;;;;5048499;28;20261;-76
2021/04/29 00:33:12;;;;;;;10.47;9.40;;;;;;;;;;5054336;28;20678;-77
2021/04/29 00:36:00;;;;;;;11.40;10.20;;;;;;;;;;5053545;28;20205;-76
2021/04/29 00:38:44;;;;;;;11.90;10.70;;;;;;;;;;5054078;28;20233;-76
2021/04/29 00:41:30;;;;;;;11.07;9.80;;;;;;;;;;5053401;28;20267;-76
2021/04/29 00:44:14;;;;;;;10.43;9.33;;;;;;;;;;5053928;28;20233;-76
2021/04/29 00:46:59;;;;;;;11.57;9.60;;;;;;;;;;5052046;28;20293;-76
2021/04/29 00:49:43;;;;;;;14.37;10.30;;;;;;;;;;5053419;28;20285;-76
2021/04/29 00:52:29;;;;;;;11.60;10.40;;;;;;;;;;5054144;28;20205;-76
2021/04/29 00:55:14;;;;;;;12.17;10.63;;;;;;;;;;5053464;28;20290;-76
2021/04/29 00:57:59;;;;;;;14.83;11.60;;;;;;;;;;5053605;28;20236;-76
2021/04/29 01:00:43;;;;;;;12.33;10.77;;;;;;;;;;5052934;28;20769;-76
2021/04/29 01:03:30;;;;;;;13.27;11.50;;;;;;;;;;5053859;28;20248;-76
2021/04/29 01:06:17;;;;;;;13.00;11.70;;;;;;;;;;5053703;28;20236;-76
2021/04/29 01:09:03;;;;;;;13.80;12.35;;;;;;;;;;5052728;28;20903;-76
2021/04/29 01:11:49;;;;;;;12.53;11.20;;;;;;;;;;5053782;28;20746;-77
2021/04/29 01:14:34;;;;;;;12.03;10.73;;;;;;;;;;5053513;28;20316;-76
2021/04/29 01:17:19;;;;;;;12.70;11.30;;;;;;;;;;5053325;28;20303;-77
2021/04/29 01:20:05;;;;;;;12.43;11.13;;;;;;;;;;5052707;28;20237;-76
2021/04/29 01:22:53;;;;;;;12.60;11.23;;;;;;;;;;5053425;28;20237;-77
2021/04/29 01:25:39;;;;;;;11.50;10.30;;;;;;;;;;5053482;28;20676;-76
2021/04/29 01:28:26;;;;;;;12.30;11.00;;;;;;;;;;5053263;28;20272;-77
2021/04/29 01:31:12;;;;;;;12.43;11.13;;;;;;;;;;5052944;28;20290;-77
2021/04/29 01:33:57;;;;;;;14.63;11.27;;;;;;;;;;5053378;28;20204;-77
2021/04/29 01:36:42;;;;;;;12.53;10.97;;;;;;;;;;5053182;28;20221;-77
2021/04/29 01:39:27;;;;;;;12.87;11.13;;;;;;;;;;5052333;28;20225;-76
2021/04/29 01:42:12;;;;;;;12.97;10.87;;;;;;;;;;5052903;28;20676;-77
2021/04/29 01:44:58;;;;;;;13.23;11.87;;;;;;;;;;5053093;28;20213;-76
2021/04/29 01:47:42;;;;;;;12.50;11.40;;;;;;;;;;5053139;28;20263;-77
2021/04/29 01:50:27;;;;;;;12.50;11.20;;;;;;;;;;5052043;28;20707;-77
2021/04/29 01:53:12;;;;;;;12.60;11.23;;;;;;;;;;5052977;28;20233;-77
2021/04/29 01:55:56;;;;;;;13.43;12.13;;;;;;;;;;5052224;28;20508;-77
2021/04/29 01:58:41;;;;;;;12.57;11.37;;;;;;;;;;5052831;28;20225;-77
2021/04/29 02:01:26;;;;;;;13.07;11.50;;;;;;;;;;5051506;28;20232;-77
2021/04/29 02:04:11;;;;;;;12.70;11.23;;;;;;;;;;5052989;28;20205;-77
2021/04/29 02:06:56;;;;;;;13.33;11.87;;;;;;;;;;5032621;28;20700;-77
2021/04/29 02:09:41;;;;;;;13.57;10.73;;;;;;;;;;5044300;28;20634;-77
2021/04/29 02:12:26;;;;;;;12.13;11.03;;;;;;;;;;5052132;28;20201;-77
2021/04/29 02:15:11;;;;;;;13.17;11.57;;;;;;;;;;5052297;28;20291;-76
2021/04/29 02:17:59;;;;;;;13.17;11.00;;;;;;;;;;5052536;28;20306;-77
2021/04/29 02:20:44;;;;;;;12.80;11.33;;;;;;;;;;5044663;28;20711;-76
2021/04/29 02:23:29;;;;;;;12.00;10.80;;;;;;;;;;5052062;28;20247;-76
2021/04/29 02:26:14;;;;;;;14.27;11.43;;;;;;;;;;5052007;28;20249;-77
2021/04/29 02:28:58;;;;;;;12.00;10.90;;;;;;;;;;5052149;28;20276;-77
2021/04/29 02:31:44;;;;;;;13.90;10.90;;;;;;;;;;5050343;28;20673;-76
2021/04/29 02:34:29;;;;;;;13.23;11.37;;;;;;;;;;5052032;28;20198;-77
2021/04/29 02:37:14;;;;;;;14.50;11.07;;;;;;;;;;5052059;28;20301;-76
2021/04/29 02:39:59;;;;;;;13.27;11.87;;;;;;;;;;5050919;28;20225;-76
2021/04/29 02:42:45;;;;;;;12.90;11.60;;;;;;;;;;5051943;28;20248;-77
2021/04/29 02:45:29;;;;;;;13.40;12.18;;;;;;;;;;5050683;28;20509;-76
2021/04/29 02:48:15;;;;;;;12.77;11.57;;;;;;;;;;5051811;28;20220;-76
2021/04/29 02:51:01;;;;;;;13.70;12.50;;;;;;;;;;5044756;28;20208;-76
2021/04/29 02:53:46;;;;;;;13.20;12.03;;;;;;;;;;5051547;28;20261;-76
2021/04/29 02:56:31;;;;;;;13.50;12.17;;;;;;;;;;5051029;28;20201;-76
2021/04/29 02:59:15;;;;;;;14.37;11.93;;;;;;;;;;5050978;28;20213;-76
2021/04/29 03:02:00;;;;;;;14.23;12.83;;;;;;;;;;5051273;28;20714;-76
2021/04/29 03:04:44;;;;;;;15.03;12.60;;;;;;;;;;5051088;28;20315;-76
2021/04/29 03:07:30;;;;;;;14.83;13.23;;;;;;;;;;5051149;28;20221;-76
2021/04/29 03:10:15;;;;;;;14.87;13.23;;;;;;;;;;5050593;28;20214;-76
2021/04/29 03:12:59;;;;;;;14.47;13.07;;;;;;;;;;5051497;28;20200;-77
2021/04/29 03:15:43;;;;;;;15.37;13.83;;;;;;;;;;5050965;28;20239;-76
2021/04/29 03:18:28;;;;;;;16.70;15.10;;;;;;;;;;5050568;28;20483;-76
2021/04/29 03:21:12;;;;;;;16.63;15.03;;;;;;;;;;5050159;28;20275;-76
2021/04/29 03:23:58;;;;;;;16.17;14.67;;;;;;;;;;5051076;28;20280;-76
2021/04/29 03:26:42;;;;;;;15.90;14.40;;;;;;;;;;5050998;28;20208;-76
2021/04/29 03:29:27;;;;;;;17.10;15.50;;;;;;;;;;5050367;28;20205;-76
2021/04/29 03:32:11;;;;;;;16.65;15.10;;;;;;;;;;5050026;28;20924;-76
2021/04/29 03:34:56;;;;;;;19.67;15.33;;;;;;;;;;5050771;28;20205;-76
2021/04/29 03:37:40;;;;;;;15.77;14.20;;;;;;;;;;5050571;28;20264;-76
2021/04/29 03:40:26;;;;;;;16.13;14.43;;;;;;;;;;5049916;28;20821;-76
2021/04/29 03:43:11;;;;;;;16.17;14.50;;;;;;;;;;5051012;28;20202;-76
2021/04/29 03:45:55;;;;;;;15.70;14.20;;;;;;;;;;5049651;28;20251;-75
2021/04/29 03:48:40;;;;;;;16.93;15.23;;;;;;;;;;5039925;28;20734;-75
2021/04/29 03:51:24;;;;;;;17.63;14.77;;;;;;;;;;5052078;28;20208;-75
2021/04/29 03:54:09;;;;;;;16.27;14.70;;;;;;;;;;5040107;28;20256;-76
2021/04/29 03:56:54;;;;;;;17.23;15.47;;;;;;;;;;5050285;28;20221;-77
2021/04/29 03:59:39;;;;;;;17.57;15.70;;;;;;;;;;5050284;28;20205;-77
2021/04/29 04:02:23;;;;;;;16.73;15.23;;;;;;;;;;5050244;28;20317;-77
2021/04/29 04:05:08;;;;;;;18.57;15.10;;;;;;;;;;5050777;28;20210;-77
2021/04/29 04:07:53;;;;;;;17.57;15.50;;;;;;;;;;5050794;28;20217;-77
2021/04/29 04:10:37;;;;;;;18.87;16.73;;;;;;;;;;5050413;28;20209;-78
2021/04/29 04:13:23;;;;;;;19.43;17.53;;;;;;;;;;5050385;28;20264;-78
2021/04/29 04:16:11;;;;;;;21.10;19.00;;;;;;;;;;5050506;28;20200;-77
2021/04/29 04:18:56;;;;;;;21.73;19.63;;;;;;;;;;5050660;28;20680;-78
2021/04/29 04:21:40;;;;;;;27.92;25.23;;;;;;;;;;5049669;28;20909;-77
2021/04/29 04:24:25;;;;;;;24.53;22.17;;;;;;;;;;5050419;28;20200;-77
2021/04/29 04:27:09;;;;;;;23.87;21.47;;;;;;;;;;5050161;28;20216;-78
2021/04/29 04:29:55;;;;;;;25.00;22.50;;;;;;;;;;5049972;28;20287;-78
2021/04/29 04:32:39;;;;;;;27.77;25.07;;;;;;;;;;5050193;28;20247;-78
2021/04/29 04:35:24;;;;;;;29.00;25.83;;;;;;;;;;5050574;28;20665;-77
2021/04/29 04:38:08;;;;;;;28.70;25.93;;;;;;;;;;5050292;28;20279;-77
2021/04/29 04:40:54;;;;;;;29.70;26.80;;;;;;;;;;5048140;28;20260;-78
2021/04/29 04:43:38;;;;;;;28.90;26.10;;;;;;;;;;5047190;28;20216;-78
2021/04/29 04:46:24;;;;;;;28.53;25.63;;;;;;;;;;5049799;28;20289;-77
2021/04/29 04:49:08;;;;;;;28.83;25.93;;;;;;;;;;5050149;28;20316;-78
2021/04/29 04:51:52;;;;;;;30.70;26.67;;;;;;;;;;5030688;28;20316;-77
2021/04/29 04:54:37;;;;;;;29.37;26.53;;;;;;;;;;5037718;28;20252;-78
2021/04/29 04:57:21;;;;;;;33.40;30.33;;;;;;;;;;5053378;28;20410;-78
2021/04/29 05:00:06;;;;;;;31.00;28.07;;;;;;;;;;5052907;28;20264;-78
2021/04/29 05:02:52;;;;;;;30.83;27.63;;;;;;;;;;5053963;28;20556;-78
2021/04/29 05:05:36;;;;;;;29.63;26.63;;;;;;;;;;5053636;28;20265;-78
2021/04/29 05:08:21;;;;;;;31.33;28.30;;;;;;;;;;5053823;28;20869;-77
2021/04/29 05:11:05;;;;;;;33.67;30.27;;;;;;;;;;5052770;28;20465;-78
2021/04/29 05:13:50;;;;;;;31.53;28.07;;;;;;;;;;5053481;28;20225;-78
2021/04/29 05:16:34;;;;;;;31.93;28.30;;;;;;;;;;5053651;28;20740;-78
2021/04/29 05:19:20;;;;;;;31.80;28.40;;;;;;;;;;5052922;28;20197;-78
2021/04/29 05:22:04;;;;;;;31.00;28.00;;;;;;;;;;5053269;28;20236;-78
2021/04/29 05:24:50;;;;;;;31.37;28.27;;;;;;;;;;5053160;28;20205;-78
2021/04/29 05:27:34;;;;;;;30.57;27.47;;;;;;;;;;5053224;28;20631;-78
2021/04/29 05:30:19;;;;;;;30.20;27.00;;;;;;;;;;5052440;28;20200;-78
2021/04/29 05:33:04;;;;;;;31.27;27.93;;;;;;;;;;5053313;28;20260;-79
2021/04/29 05:35:49;;;;;;;31.70;28.30;;;;;;;;;;5053391;28;20574;-78
2021/04/29 05:38:33;;;;;;;31.63;28.53;;;;;;;;;;5052397;28;20249;-79
2021/04/29 05:41:18;;;;;;;32.20;28.93;;;;;;;;;;5032610;28;20302;-78
2021/04/29 05:44:02;;;;;;;32.10;28.93;;;;;;;;;;5047028;28;20208;-78
2021/04/29 05:46:46;;;;;;;31.60;28.47;;;;;;;;;;5052432;28;20314;-78
2021/04/29 05:49:31;;;;;;;31.50;28.30;;;;;;;;;;5052251;28;20256;-77
2021/04/29 05:52:16;;;;;;;30.90;27.73;;;;;;;;;;5052894;28;20719;-78
2021/04/29 05:55:01;;;;;;;30.13;27.07;;;;;;;;;;5052645;28;20248;-79
2021/04/29 05:57:45;;;;;;;30.07;27.27;;;;;;;;;;5052936;28;20826;-78
2021/04/29 06:00:30;;;;;;;31.33;28.17;;;;;;;;;;5051954;28;20251;-78
2021/04/29 06:03:15;;;;;;;31.60;28.27;;;;;;;;;;5052481;28;20244;-78
2021/04/29 06:06:00;;;;;;;29.47;26.57;;;;;;;;;;5051528;28;20730;-78
2021/04/29 06:08:45;;;;;;;31.40;28.10;;;;;;;;;;5052442;28;20308;-78
2021/04/29 06:11:30;;;;;;;30.53;27.50;;;;;;;;;;5052256;28;20251;-78
2021/04/29 06:14:14;;;;;;;32.63;29.43;;;;;;;;;;5052637;28;20332;-78
2021/04/29 06:16:59;;;;;;;31.53;28.43;;;;;;;;;;5052359;28;20233;-79
2021/04/29 06:19:43;;;;;;;30.00;26.90;;;;;;;;;;5051620;28;20206;-79
2021/04/29 06:22:28;;;;;;;31.80;28.57;;;;;;;;;;5048488;28;20579;-78
2021/04/29 06:25:14;;;;;;;33.30;29.70;;;;;;;;;;5047913;28;20198;-79
2021/04/29 06:27:58;;;;;;;31.07;28.17;;;;;;;;;;5049342;28;20268;-77
2021/04/29 06:30:43;;;;;;;30.73;27.67;;;;;;;;;;5049902;28;20687;-78
2021/04/29 06:33:28;;;;;;;29.67;26.70;;;;;;;;;;5048744;28;20289;-75
2021/04/29 06:36:12;;;;;;;30.57;27.67;;;;;;;;;;5048885;28;20209;-74
2021/04/29 06:38:57;;;;;;;27.23;24.57;;;;;;;;;;5049051;28;20264;-74
2021/04/29 06:41:42;;;;;;;29.40;26.50;;;;;;;;;;5049863;28;20268;-73
2021/04/29 06:44:27;;;;;;;26.97;24.20;;;;;;;;;;5048625;28;20209;-75
2021/04/29 06:47:11;;;;;;;28.27;25.47;;;;;;;;;;5046519;28;20224;-75
2021/04/29 06:49:56;;;;;;;29.13;26.33;;;;;;;;;;5049239;28;20297;-74
2021/04/29 06:52:40;;;;;;;33.22;30.27;;;;;;;;;;5048056;28;20440;-75
2021/04/29 06:55:25;;;;;;;30.73;27.77;;;;;;;;;;5049738;28;20209;-76
2021/04/29 06:58:10;;;;;;;28.80;26.00;;;;;;;;;;5048682;28;20226;-75
2021/04/29 07:00:55;;;;;;;29.20;26.40;;;;;;;;;;5048517;28;20585;-75
2021/04/29 07:03:39;;;;;;;29.00;26.20;;;;;;;;;;5049102;28;20209;-74
2021/04/29 07:06:24;;;;;;;28.93;26.23;;;;;;;;;;5049108;28;20233;-74
2021/04/29 07:09:09;;;;;;;28.73;26.03;;;;;;;;;;5047499;28;20224;-74
2021/04/29 07:11:54;;;;;;;30.57;27.77;;;;;;;;;;5049274;28;20299;-74
2021/04/29 07:14:40;;;;;;;28.23;25.50;;;;;;;;;;5049050;28;20241;-74
2021/04/29 07:17:24;;;;;;;29.43;26.73;;;;;;;;;;5048492;28;20297;-73
2021/04/29 07:20:09;;;;;;;27.10;24.57;;;;;;;;;;5046635;28;20668;-74
2021/04/29 07:22:54;;;;;;;29.40;26.63;;;;;;;;;;5048599;28;20209;-77
2021/04/29 07:25:38;;;;;;;28.10;25.40;;;;;;;;;;5048426;28;20672;-74
2021/04/29 07:28:23;;;;;;;27.80;25.20;;;;;;;;;;5047802;28;20255;-74
2021/04/29 07:31:08;;;;;;;28.43;25.63;;;;;;;;;;5047596;28;20258;-77
2021/04/29 07:33:52;;;;;;;27.10;24.60;;;;;;;;;;5048633;28;20620;-76
2021/04/29 07:36:37;;;;;;;28.23;25.67;;;;;;;;;;5048863;28;20234;-74
2021/04/29 07:39:21;;;;;;;29.10;26.33;;;;;;;;;;5048063;28;20219;-75
2021/04/29 07:42:06;;;;;;;29.77;27.08;;;;;;;;;;5047895;28;20972;-76
2021/04/29 07:44:50;;;;;;;28.20;25.53;;;;;;;;;;5046133;28;20590;-74
2021/04/29 07:47:36;;;;;;;28.30;25.70;;;;;;;;;;5048652;28;20308;-77
2021/04/29 07:50:20;;;;;;;27.77;25.03;;;;;;;;;;5046190;28;20194;-73
2021/04/29 07:53:05;;;;;;;27.17;24.53;;;;;;;;;;5048497;28;20248;-74
2021/04/29 07:55:49;;;;;;;27.50;24.80;;;;;;;;;;5048755;28;20481;-75
2021/04/29 07:58:34;;;;;;;27.67;24.93;;;;;;;;;;5047659;28;20209;-76
2021/04/29 08:01:19;;;;;;;27.47;24.83;;;;;;;;;;5047782;28;20225;-76
2021/04/29 08:04:04;;;;;;;26.93;24.27;;;;;;;;;;5048700;28;20277;-75
2021/04/29 08:06:48;;;;;;;28.23;25.60;;;;;;;;;;5048507;28;20231;-77
2021/04/29 08:09:33;;;;;;;25.27;22.97;;;;;;;;;;5047998;28;20279;-77
2021/04/29 08:12:18;;;;;;;26.23;23.63;;;;;;;;;;5048481;28;20704;-77
2021/04/29 08:15:02;;;;;;;25.43;23.00;;;;;;;;;;5048342;28;20213;-78
2021/04/29 08:17:47;;;;;;;24.47;22.27;;;;;;;;;;5047808;28;20276;-76
2021/04/29 08:20:32;;;;;;;24.07;21.77;;;;;;;;;;5048049;28;20566;-78
2021/04/29 08:23:17;;;;;;;24.53;22.30;;;;;;;;;;5048129;28;20200;-77
2021/04/29 08:26:01;;;;;;;25.30;22.90;;;;;;;;;;5048073;28;20269;-75
2021/04/29 08:28:46;;;;;;;25.27;22.57;;;;;;;;;;5047347;28;20263;-78
2021/04/29 08:31:30;;;;;;;23.67;21.40;;;;;;;;;;5051815;28;20232;-76
2021/04/29 08:34:15;;;;;;;24.53;22.23;;;;;;;;;;5051870;28;20741;-79
2021/04/29 08:37:00;;;;;;;23.03;20.93;;;;;;;;;;5050063;28;20217;-79
2021/04/29 08:39:45;;;;;;;25.53;23.00;;;;;;;;;;5051534;28;20885;-79
2021/04/29 08:42:30;;;;;;;23.90;21.70;;;;;;;;;;5049824;28;20244;-78
2021/04/29 08:45:15;;;;;;;25.70;23.20;;;;;;;;;;5051512;28;20715;-78
2021/04/29 08:48:00;;;;;;;24.13;22.00;;;;;;;;;;5051267;28;20228;-78
2021/04/29 08:50:45;;;;;;;23.40;21.20;;;;;;;;;;5050320;28;20331;-79
2021/04/29 08:53:30;;;;;;;23.53;21.10;;;;;;;;;;5051698;28;20220;-79
2021/04/29 08:56:15;;;;;;;23.23;21.10;;;;;;;;;;5051772;28;20873;-77
2021/04/29 08:59:00;;;;;;;29.77;22.57;;;;;;;;;;5051279;28;20571;-75
2021/04/29 09:01:45;;;;;;;21.43;19.43;;;;;;;;;;5051331;28;20613;-74
2021/04/29 09:04:37;;;;;;;21.50;19.60;;;;;;;;;;5051494;28;20345;-73
2021/04/29 09:07:22;;;;;;;22.47;20.27;;;;;;;;;;5051671;28;20229;-72
2021/04/29 09:10:08;;;;;;;22.37;20.27;;;;;;;;;;5050506;28;20652;-75
2021/04/29 09:12:53;;;;;;;22.43;20.43;;;;;;;;;;5053771;28;20209;-75
2021/04/29 09:15:39;;;;;;;22.10;20.10;;;;;;;;;;5052698;28;20225;-73
2021/04/29 09:18:30;;;;;;;22.80;20.60;;;;;;;;;;5051540;28;20620;-74
2021/04/29 09:21:15;;;;;;;24.13;22.02;;;;;;;;;;5050431;28;20423;-78
2021/04/29 09:23:59;;;;;;;22.70;20.70;;;;;;;;;;5051101;28;20243;-76
2021/04/29 09:26:45;;;;;;;22.27;20.07;;;;;;;;;;5051026;28;20273;-75
2021/04/29 09:29:32;;;;;;;22.47;20.33;;;;;;;;;;5050815;28;20225;-75
2021/04/29 09:32:24;;;;;;;22.80;20.70;;;;;;;;;;5050057;28;20206;-76
2021/04/29 09:35:18;;;;;;;23.73;21.40;;;;;;;;;;5050666;28;20278;-76
2021/04/29 09:38:09;;;;;;;22.37;20.10;;;;;;;;;;5050558;28;20209;-76
2021/04/29 09:40:53;;;;;;;22.47;20.37;;;;;;;;;;5049834;28;20272;-76
2021/04/29 09:43:39;;;;;;;24.30;21.77;;;;;;;;;;5051180;28;20244;-76
2021/04/29 09:46:24;;;;;;;22.03;20.00;;;;;;;;;;5049972;28;20256;-77
2021/04/29 09:49:18;;;;;;;22.83;20.73;;;;;;;;;;5050293;28;20679;-79
2021/04/29 09:52:04;;;;;;;23.27;20.97;;;;;;;;;;5055670;28;20316;-76
2021/04/29 09:54:49;;;;;;;29.20;26.60;;;;;;;;;;5049385;28;20413;-75
2021/04/29 09:57:34;;;;;;;25.37;22.97;;;;;;;;;;5049982;28;20277;-73
2021/04/29 10:00:20;;;;;;;26.73;24.33;;;;;;;;;;5049798;28;20225;-82
2021/04/29 10:03:05;;;;;;;25.10;22.70;;;;;;;;;;5050242;28;20209;-76
2021/04/29 10:05:52;;;;;;;26.30;23.73;;;;;;;;;;5050489;28;20226;-74
2021/04/29 10:08:37;;;;;;;25.97;23.27;;;;;;;;;;5048905;28;20198;-76
2021/04/29 10:11:22;;;;;;;27.43;24.67;;;;;;;;;;5049923;28;20237;-76
2021/04/29 10:14:08;;;;;;;30.10;27.10;;;;;;;;;;5048493;28;20217;-78
2021/04/29 10:16:54;;;;;;;26.93;24.53;;;;;;;;;;5047633;28;20233;-77
2021/04/29 10:19:40;;;;;;;30.10;27.17;;;;;;;;;;5048362;28;20241;-78
2021/04/29 10:22:24;;;;;;;29.13;26.33;;;;;;;;;;5049621;28;20312;-83
2021/04/29 10:25:10;;;;;;;28.60;25.67;;;;;;;;;;5050492;28;20567;-83
2021/04/29 10:27:55;;;;;;;31.03;27.33;;;;;;;;;;5050138;28;20603;-82
2021/04/29 10:30:40;;;;;;;30.57;27.57;;;;;;;;;;5049874;28;20333;-82
2021/04/29 10:33:25;;;;;;;29.17;26.07;;;;;;;;;;5048818;28;20679;-82
2021/04/29 10:36:11;;;;;;;27.37;24.67;;;;;;;;;;5050366;28;20273;-76
2021/04/29 10:38:55;;;;;;;27.27;24.40;;;;;;;;;;5052086;28;20224;-79
2021/04/29 10:41:41;;;;;;;27.37;24.40;;;;;;;;;;5055608;28;20763;-79
2021/04/29 10:44:25;;;;;;;27.93;24.90;;;;;;;;;;5049578;28;20627;-79
2021/04/29 10:47:10;;;;;;;24.17;21.80;;;;;;;;;;5049641;28;20622;-78
2021/04/29 10:50:07;;;;;;;22.63;20.50;;;;;;;;;;5048749;28;20711;-73
2021/04/29 10:52:52;;;;;;;22.80;20.63;;;;;;;;;;5047428;28;20218;-72
2021/04/29 10:55:37;;;;;;;23.30;21.13;;;;;;;;;;5049202;28;20244;-72
2021/04/29 10:58:23;;;;;;;27.83;25.33;;;;;;;;;;5048503;28;20416;-72
2021/04/29 11:01:11;;;;;;;23.97;21.57;;;;;;;;;;5048184;28;20221;-72
2021/04/29 11:03:57;;;;;;;21.20;19.30;;;;;;;;;;5049247;28;20603;-72
2021/04/29 11:06:43;;;;;;;22.83;20.13;;;;;;;;;;5048891;28;20230;-72
2021/04/29 11:09:28;;;;;;;21.53;19.43;;;;;;;;;;5048458;28;20209;-76
2021/04/29 11:12:12;;;;;;;22.50;20.30;;;;;;;;;;5049331;28;20247;-76
2021/04/29 11:14:57;;;;;;;20.43;18.43;;;;;;;;;;5033327;28;20221;-75
2021/04/29 11:17:41;;;;;;;23.57;21.33;;;;;;;;;;5050982;28;20213;-76
2021/04/29 11:20:26;;;;;;;23.57;21.27;;;;;;;;;;5050037;28;20287;-78
2021/04/29 11:23:11;;;;;;;21.30;19.20;;;;;;;;;;5050643;28;20240;-77
2021/04/29 11:26:03;;;;;;;19.90;17.87;;;;;;;;;;5050487;28;20221;-75
2021/04/29 11:28:48;;;;;;;23.27;20.87;;;;;;;;;;5048515;28;20266;-77
2021/04/29 11:31:37;;;;;;;22.63;20.33;;;;;;;;;;5048450;28;20684;-75
2021/04/29 11:34:21;;;;;;;22.90;20.83;;;;;;;;;;5048910;28;20278;-77
2021/04/29 11:37:06;;;;;;;25.08;22.95;;;;;;;;;;5047223;28;20981;-72
2021/04/29 11:39:58;;;;;;;21.93;19.83;;;;;;;;;;5047352;28;20225;-71
2021/04/29 11:42:48;;;;;;;24.23;21.73;;;;;;;;;;5048193;28;20232;-71
2021/04/29 11:45:33;;;;;;;21.77;19.77;;;;;;;;;;5047092;28;20221;-71
2021/04/29 11:48:22;;;;;;;21.77;19.77;;;;;;;;;;5048034;28;20910;-73
2021/04/29 11:51:11;;;;;;;23.47;20.83;;;;;;;;;;5048126;28;20245;-74
2021/04/29 11:54:01;;;;;;;21.63;19.43;;;;;;;;;;5048423;28;20251;-76
2021/04/29 11:56:47;;;;;;;21.43;19.43;;;;;;;;;;5047976;28;20521;-76
2021/04/29 11:59:32;;;;;;;23.47;21.17;;;;;;;;;;5048368;28;20658;-77
2021/04/29 12:02:17;;;;;;;24.90;22.50;;;;;;;;;;5047601;28;20348;-75
2021/04/29 12:05:01;;;;;;;23.57;20.50;;;;;;;;;;5047869;28;20243;-75
2021/04/29 12:07:46;;;;;;;23.77;21.23;;;;;;;;;;5048310;28;20236;-74
2021/04/29 12:10:41;;;;;;;19.73;17.93;;;;;;;;;;5047732;28;20209;-74
2021/04/29 12:13:30;;;;;;;20.10;18.10;;;;;;;;;;5048498;28;20217;-74
2021/04/29 12:16:17;;;;;;;18.07;16.37;;;;;;;;;;5046177;28;20256;-73
2021/04/29 12:19:03;;;;;;;16.30;14.60;;;;;;;;;;5047940;28;20197;-73
2021/04/29 12:21:48;;;;;;;17.00;15.40;;;;;;;;;;5047962;28;20627;-77
2021/04/29 12:24:39;;;;;;;19.25;17.52;;;;;;;;;;5047852;28;20422;-75
2021/04/29 12:27:24;;;;;;;16.83;15.23;;;;;;;;;;5047982;28;20502;-75
2021/04/29 12:30:10;;;;;;;16.27;14.77;;;;;;;;;;5047231;28;20213;-75
2021/04/29 12:32:54;;;;;;;16.67;14.97;;;;;;;;;;5048254;28;20221;-76
2021/04/29 12:35:39;;;;;;;15.70;14.20;;;;;;;;;;5048116;28;20237;-77
2021/04/29 12:38:30;;;;;;;15.10;13.80;;;;;;;;;;5048177;28;20212;-76
2021/04/29 12:41:15;;;;;;;13.43;12.23;;;;;;;;;;5047311;28;20592;-75
2021/04/29 12:44:01;;;;;;;13.23;12.00;;;;;;;;;;5047132;28;20212;-74
2021/04/29 12:46:46;;;;;;;13.00;11.90;;;;;;;;;;5047740;28;20216;-75
2021/04/29 12:49:31;;;;;;;13.67;12.47;;;;;;;;;;5047833;28;20579;-77
2021/04/29 12:52:15;;;;;;;12.80;11.70;;;;;;;;;;5047912;28;20240;-75
2021/04/29 12:55:10;;;;;;;14.33;12.93;;;;;;;;;;5048058;28;20727;-77
2021/04/29 12:58:03;;;;;;;13.13;12.03;;;;;;;;;;5048328;28;20341;-74
2021/04/29 13:00:51;;;;;;;13.17;11.93;;;;;;;;;;5047223;28;20205;-74
2021/04/29 13:03:38;;;;;;;13.63;12.53;;;;;;;;;;5047251;28;20216;-77
2021/04/29 13:06:23;;;;;;;13.07;11.87;;;;;;;;;;5044237;28;20225;-76
2021/04/29 13:09:07;;;;;;;12.87;11.87;;;;;;;;;;5045719;28;20201;-76
2021/04/29 13:11:52;;;;;;;16.27;14.98;;;;;;;;;;5046986;28;20447;-77
2021/04/29 13:14:37;;;;;;;14.33;13.07;;;;;;;;;;5048422;28;20205;-76
2021/04/29 13:17:22;;;;;;;14.33;13.03;;;;;;;;;;5052607;28;20252;-73
2021/04/29 13:20:08;;;;;;;14.67;13.13;;;;;;;;;;5050303;28;20756;-73
2021/04/29 13:22:52;;;;;;;13.00;11.70;;;;;;;;;;5050962;28;20228;-73
2021/04/29 13:25:37;;;;;;;12.97;11.87;;;;;;;;;;5051259;28;20229;-72
2021/04/29 13:28:22;;;;;;;13.83;12.50;;;;;;;;;;5051380;28;20316;-72
2021/04/29 13:31:06;;;;;;;13.50;12.13;;;;;;;;;;5050848;28;20745;-74
2021/04/29 13:33:51;;;;;;;13.03;11.93;;;;;;;;;;5051094;28;20451;-74
2021/04/29 13:36:36;;;;;;;13.30;12.00;;;;;;;;;;5051276;28;20328;-77
2021/04/29 13:39:21;;;;;;;14.07;12.67;;;;;;;;;;5051206;28;20212;-77
2021/04/29 13:42:06;;;;;;;12.27;11.03;;;;;;;;;;5049866;28;20225;-79
2021/04/29 13:44:51;;;;;;;12.70;11.43;;;;;;;;;;5050764;28;20228;-76
2021/04/29 13:47:36;;;;;;;12.77;11.47;;;;;;;;;;5049427;28;20232;-74
2021/04/29 13:50:21;;;;;;;12.10;10.90;;;;;;;;;;5050970;28;20639;-74
2021/04/29 13:53:07;;;;;;;12.17;10.97;;;;;;;;;;5048810;28;20315;-75
2021/04/29 13:55:53;;;;;;;10.83;9.83;;;;;;;;;;5050764;28;20225;-75
2021/04/29 13:58:37;;;;;;;12.48;11.32;;;;;;;;;;5049662;28;20409;-76
2021/04/29 14:01:22;;;;;;;12.13;10.93;;;;;;;;;;5049131;28;20225;-75
2021/04/29 14:04:07;;;;;;;11.53;10.00;;;;;;;;;;5050069;28;20263;-73
2021/04/29 14:06:51;;;;;;;10.80;9.80;;;;;;;;;;5050262;28;20217;-72
2021/04/29 14:09:37;;;;;;;10.73;9.73;;;;;;;;;;5047964;28;20209;-72
2021/04/29 14:12:21;;;;;;;10.77;9.00;;;;;;;;;;5050319;28;20205;-73
2021/04/29 14:15:06;;;;;;;9.30;8.40;;;;;;;;;;5050373;28;20290;-72
2021/04/29 14:17:50;;;;;;;11.43;9.93;;;;;;;;;;5050414;28;20224;-72
2021/04/29 14:20:35;;;;;;;10.70;9.67;;;;;;;;;;5050034;28;20213;-73
2021/04/29 14:23:19;;;;;;;9.40;8.40;;;;;;;;;;5049935;28;20233;-72
2021/04/29 14:26:05;;;;;;;10.53;9.47;;;;;;;;;;5049281;28;20780;-72
2021/04/29 14:28:49;;;;;;;10.73;9.63;;;;;;;;;;5050015;28;20450;-72
2021/04/29 14:31:34;;;;;;;11.03;9.33;;;;;;;;;;5049615;28;20228;-73
2021/04/29 14:34:19;;;;;;;10.50;9.50;;;;;;;;;;5050395;28;20217;-73
2021/04/29 14:37:04;;;;;;;12.30;9.20;;;;;;;;;;5049818;28;20556;-72
2021/04/29 14:39:48;;;;;;;11.67;9.60;;;;;;;;;;5047885;28;20237;-73
2021/04/29 14:42:35;;;;;;;9.70;8.70;;;;;;;;;;5049082;28;20217;-72
2021/04/29 14:45:22;;;;;;;12.10;8.67;;;;;;;;;;5049569;28;20220;-71
2021/04/29 14:48:09;;;;;;;11.93;10.40;;;;;;;;;;5046441;28;20428;-71
2021/04/29 14:50:54;;;;;;;11.10;10.00;;;;;;;;;;5049280;28;20244;-73
2021/04/29 14:53:38;;;;;;;9.17;8.10;;;;;;;;;;5049587;28;20205;-73
2021/04/29 14:56:23;;;;;;;10.97;9.20;;;;;;;;;;5049360;28;20292;-70
2021/04/29 14:59:08;;;;;;;10.37;8.97;;;;;;;;;;5050970;28;20220;-73
2021/04/29 15:01:52;;;;;;;11.37;8.63;;;;;;;;;;5050544;28;20247;-76
2021/04/29 15:04:37;;;;;;;15.00;9.20;;;;;;;;;;5039227;28;20396;-77
2021/04/29 15:07:21;;;;;;;12.13;9.97;;;;;;;;;;5045194;28;20570;-78
2021/04/29 15:10:07;;;;;;;13.63;9.80;;;;;;;;;;5045880;28;20281;-79
2021/04/29 15:12:51;;;;;;;10.53;9.43;;;;;;;;;;5051549;28;20232;-77
2021/04/29 15:15:36;;;;;;;11.50;10.03;;;;;;;;;;5050089;28;20237;-71
2021/04/29 15:18:21;;;;;;;12.20;10.40;;;;;;;;;;5051349;28;20213;-72
2021/04/29 15:21:07;;;;;;;11.30;10.00;;;;;;;;;;5050180;28;20213;-70
2021/04/29 15:23:52;;;;;;;10.60;9.30;;;;;;;;;;5051134;28;20597;-70
2021/04/29 15:26:36;;;;;;;12.10;9.50;;;;;;;;;;5048399;28;20233;-70
2021/04/29 15:29:21;;;;;;;12.63;9.33;;;;;;;;;;5047639;28;20205;-70
2021/04/29 15:32:07;;;;;;;10.13;9.10;;;;;;;;;;5049817;28;21366;-70
2021/04/29 15:34:51;;;;;;;10.17;9.07;;;;;;;;;;5049615;28;20228;-70
2021/04/29 15:37:36;;;;;;;11.07;9.03;;;;;;;;;;5049616;28;20220;-71
2021/04/29 15:40:20;;;;;;;11.30;9.03;;;;;;;;;;5048323;28;20216;-70
2021/04/29 15:43:05;;;;;;;12.43;9.63;;;;;;;;;;5043256;28;20244;-70
2021/04/29 15:45:51;;;;;;;11.60;9.97;;;;;;;;;;5047061;28;20817;-70
2021/04/29 15:48:37;;;;;;;11.33;9.90;;;;;;;;;;5049889;28;20241;-70
2021/04/29 15:51:21;;;;;;;10.70;9.50;;;;;;;;;;5044479;28;20248;-70
2021/04/29 15:54:07;;;;;;;12.97;10.40;;;;;;;;;;5049522;28;20212;-70
2021/04/29 15:56:51;;;;;;;11.30;10.07;;;;;;;;;;5049601;28;20303;-70
2021/04/29 15:59:36;;;;;;;14.00;10.80;;;;;;;;;;5050142;28;20256;-71
2021/04/29 16:02:20;;;;;;;12.33;10.83;;;;;;;;;;5050440;28;20240;-71